Time;durP1;ratioP1;P1;durP2;ratioP2;P2;SDS_P1;SDS_P2;PMS_P1;PMS_P2;Temp;Humidity;BMP_temperature;BMP_pressure;BME280_temperature;BME280_humidity;BME280_pressure;Samples;Min_cycle;Max_cycle;Signal;HPM_P1;HPM_P2
2022/03/13 00:00:36;;;;;;;5.55;3.25;;;20.30;48.60;;;;;;4972869;28;20399;-59
2022/03/13 00:03:09;;;;;;;5.30;3.05;;;20.30;48.60;;;;;;4973713;28;20537;-59
2022/03/13 00:05:38;;;;;;;5.10;2.83;;;20.30;48.60;;;;;;4973377;28;20122;-59
2022/03/13 00:08:15;;;;;;;4.43;3.03;;;20.20;48.50;;;;;;4973263;28;20607;-59
2022/03/13 00:10:41;;;;;;;5.40;2.92;;;20.20;48.40;;;;;;4974013;28;20089;-59
2022/03/13 00:13:10;;;;;;;4.55;2.85;;;20.20;48.40;;;;;;4972784;28;20074;-59
2022/03/13 00:15:37;;;;;;;5.00;3.13;;;20.20;48.40;;;;;;4973543;28;20056;-59
2022/03/13 00:18:03;;;;;;;5.37;2.90;;;20.20;48.40;;;;;;4973608;28;20481;-59
2022/03/13 00:20:29;;;;;;;4.30;2.90;;;20.20;48.30;;;;;;4972733;28;20342;-59
2022/03/13 00:22:54;;;;;;;5.97;3.03;;;20.10;48.20;;;;;;4973787;28;20078;-59
2022/03/13 00:25:20;;;;;;;9.85;3.40;;;20.10;48.20;;;;;;4973491;28;20074;-59
2022/03/13 00:27:46;;;;;;;5.70;3.40;;;20.10;48.10;;;;;;4973238;28;20406;-59
2022/03/13 00:30:12;;;;;;;5.00;3.10;;;20.10;48.10;;;;;;4973348;28;20058;-59
2022/03/13 00:32:38;;;;;;;5.43;3.13;;;20.10;48.00;;;;;;4973912;28;20034;-59
2022/03/13 00:35:04;;;;;;;6.72;3.30;;;20.10;48.00;;;;;;4972812;28;20105;-59
2022/03/13 00:37:30;;;;;;;5.18;3.10;;;20.10;48.00;;;;;;4973710;28;20060;-59
2022/03/13 00:39:56;;;;;;;5.43;3.30;;;20.10;48.00;;;;;;4973331;28;20055;-59
2022/03/13 00:42:22;;;;;;;5.50;2.97;;;20.10;48.00;;;;;;4972781;28;20082;-59
2022/03/13 00:44:49;;;;;;;5.22;3.05;;;20.10;47.90;;;;;;4973614;28;20077;-59
2022/03/13 00:47:16;;;;;;;6.13;3.15;;;20.00;47.90;;;;;;4971567;28;20058;-59
2022/03/13 00:49:41;;;;;;;5.57;3.63;;;20.00;47.80;;;;;;4973668;28;20049;-59
2022/03/13 00:52:07;;;;;;;5.75;3.13;;;20.00;47.80;;;;;;4973043;28;20133;-58
2022/03/13 00:54:33;;;;;;;5.43;3.08;;;20.00;47.80;;;;;;4972634;28;20054;-59
2022/03/13 00:56:59;;;;;;;4.68;3.03;;;20.00;47.70;;;;;;4973524;28;20097;-59
2022/03/13 00:59:25;;;;;;;6.25;3.30;;;20.00;47.70;;;;;;4973078;28;20050;-59
2022/03/13 01:01:50;;;;;;;5.10;3.17;;;20.00;47.70;;;;;;4972557;28;20509;-59
2022/03/13 01:04:16;;;;;;;4.65;3.17;;;20.00;47.60;;;;;;4975505;28;20043;-59
2022/03/13 01:06:43;;;;;;;4.80;3.15;;;20.00;47.60;;;;;;4977496;28;20089;-59
2022/03/13 01:09:08;;;;;;;5.28;3.25;;;19.90;47.50;;;;;;4976085;28;20061;-59
2022/03/13 01:11:34;;;;;;;4.60;3.10;;;20.00;47.80;;;;;;4975518;28;20050;-59
2022/03/13 01:13:59;;;;;;;5.00;3.25;;;19.90;47.80;;;;;;4976813;28;20058;-58
2022/03/13 01:16:27;;;;;;;6.22;3.08;;;19.90;47.50;;;;;;4975781;28;20130;-59
2022/03/13 01:18:55;;;;;;;5.68;3.60;;;19.90;47.40;;;;;;4976922;28;20058;-59
2022/03/13 01:21:20;;;;;;;5.13;3.58;;;19.90;47.40;;;;;;4976645;28;20053;-59
2022/03/13 01:24:01;;;;;;;4.90;3.30;;;19.90;47.40;;;;;;4974872;28;20043;-59
2022/03/13 01:26:34;;;;;;;5.28;3.20;;;19.90;47.30;;;;;;4976425;28;20043;-60
2022/03/13 01:29:00;;;;;;;5.55;3.40;;;19.90;47.40;;;;;;4976827;28;20082;-59
2022/03/13 01:31:28;;;;;;;5.47;3.22;;;19.90;47.40;;;;;;4975426;28;20117;-60
2022/03/13 01:33:54;;;;;;;6.23;3.77;;;19.90;47.30;;;;;;4976289;28;20394;-59
2022/03/13 01:36:20;;;;;;;5.25;3.28;;;19.90;47.30;;;;;;4975564;28;20788;-59
2022/03/13 01:38:45;;;;;;;5.47;3.72;;;19.80;47.20;;;;;;4976135;28;20050;-59
2022/03/13 01:41:11;;;;;;;4.45;3.10;;;19.90;47.20;;;;;;4975854;28;20042;-59
2022/03/13 01:43:36;;;;;;;4.90;3.15;;;19.80;47.10;;;;;;4975735;28;20046;-59
2022/03/13 01:46:03;;;;;;;5.95;3.38;;;19.80;47.10;;;;;;4975978;28;20046;-59
2022/03/13 01:48:29;;;;;;;5.68;3.45;;;19.80;47.10;;;;;;4976461;28;20039;-59
2022/03/13 01:50:54;;;;;;;5.35;3.83;;;19.80;47.10;;;;;;4975360;28;20097;-59
2022/03/13 01:53:21;;;;;;;6.10;3.55;;;19.80;47.10;;;;;;4975580;28;20090;-59
2022/03/13 01:55:51;;;;;;;5.32;3.22;;;19.80;47.00;;;;;;4976099;28;20047;-59
2022/03/13 01:58:17;;;;;;;3.92;3.13;;;19.80;46.90;;;;;;4975144;28;20035;-59
2022/03/13 02:00:42;;;;;;;4.80;3.45;;;19.80;46.90;;;;;;4975924;28;20133;-58
2022/03/13 02:03:08;;;;;;;5.38;3.40;;;19.70;46.90;;;;;;4975789;28;20054;-59
2022/03/13 02:05:34;;;;;;;5.82;3.50;;;19.70;46.80;;;;;;4974064;28;20105;-59
2022/03/13 02:08:04;;;;;;;4.60;3.17;;;19.70;46.90;;;;;;4976027;28;20039;-59
2022/03/13 02:10:30;;;;;;;4.95;3.15;;;19.80;46.90;;;;;;4975866;28;20047;-59
2022/03/13 02:12:56;;;;;;;5.15;3.40;;;19.70;46.80;;;;;;4975247;28;20062;-59
2022/03/13 02:15:22;;;;;;;4.85;3.10;;;19.70;46.80;;;;;;4975297;28;20039;-59
2022/03/13 02:17:47;;;;;;;5.55;3.55;;;19.70;46.70;;;;;;4975642;28;20074;-59
2022/03/13 02:20:15;;;;;;;4.68;3.28;;;19.70;46.70;;;;;;4974606;28;20047;-59
2022/03/13 02:22:45;;;;;;;5.35;3.30;;;19.70;46.70;;;;;;4975787;28;20050;-59
2022/03/13 02:25:17;;;;;;;4.65;3.15;;;19.70;46.70;;;;;;4975473;28;20073;-59
2022/03/13 02:27:42;;;;;;;6.10;3.40;;;19.70;46.60;;;;;;4975042;28;20046;-59
2022/03/13 02:30:08;;;;;;;4.47;3.20;;;19.70;46.60;;;;;;4975035;28;20052;-59
2022/03/13 02:32:34;;;;;;;6.07;3.63;;;19.70;46.50;;;;;;4974893;28;20046;-59
2022/03/13 02:34:59;;;;;;;4.07;3.10;;;19.70;46.60;;;;;;4975038;28;20125;-59
2022/03/13 02:37:34;;;;;;;5.45;3.15;;;19.70;46.50;;;;;;4975201;28;20049;-59
2022/03/13 02:40:00;;;;;;;4.72;3.10;;;19.70;46.40;;;;;;4974329;28;20410;-59
2022/03/13 02:42:25;;;;;;;5.47;3.30;;;19.70;46.40;;;;;;4974984;28;20475;-59
2022/03/13 02:44:51;;;;;;;4.68;3.15;;;19.70;46.30;;;;;;4975277;28;20047;-59
2022/03/13 02:47:16;;;;;;;4.70;3.08;;;19.70;46.40;;;;;;4974207;28;20046;-59
2022/03/13 02:49:42;;;;;;;5.40;3.42;;;19.70;46.30;;;;;;4974978;28;20047;-59
2022/03/13 02:52:07;;;;;;;4.93;3.53;;;19.70;46.30;;;;;;4974935;28;20043;-59
2022/03/13 02:54:33;;;;;;;5.57;3.20;;;19.70;46.30;;;;;;4974472;28;20101;-59
2022/03/13 02:56:59;;;;;;;5.75;3.58;;;19.70;46.20;;;;;;4975051;28;20053;-59
2022/03/13 02:59:24;;;;;;;4.90;3.22;;;19.70;46.90;;;;;;4974771;28;20046;-59
2022/03/13 03:01:50;;;;;;;4.72;3.22;;;19.80;46.20;;;;;;4986188;28;20084;-59
2022/03/13 03:04:16;;;;;;;5.15;3.38;;;19.80;46.20;;;;;;4993063;28;20038;-59
2022/03/13 03:06:50;;;;;;;5.60;3.30;;;19.80;46.20;;;;;;4994032;28;20053;-59
2022/03/13 03:09:16;;;;;;;4.95;3.30;;;19.80;46.10;;;;;;4993245;28;20054;-59
2022/03/13 03:11:42;;;;;;;4.63;3.22;;;19.80;46.20;;;;;;4994145;28;20100;-59
2022/03/13 03:14:08;;;;;;;4.78;3.42;;;19.80;46.10;;;;;;4994055;28;20057;-59
2022/03/13 03:16:34;;;;;;;4.20;3.03;;;19.90;46.10;;;;;;4993397;28;20054;-59
2022/03/13 03:18:59;;;;;;;4.65;3.15;;;19.90;46.10;;;;;;4994179;28;20401;-59
2022/03/13 03:21:25;;;;;;;4.78;2.95;;;19.80;46.00;;;;;;4993586;28;20149;-59
2022/03/13 03:23:51;;;;;;;4.68;3.10;;;19.80;46.00;;;;;;4993353;28;20045;-59
2022/03/13 03:26:17;;;;;;;5.93;3.42;;;19.90;46.00;;;;;;4992827;28;20410;-59
2022/03/13 03:28:43;;;;;;;4.72;3.05;;;19.90;46.00;;;;;;4993991;28;20590;-59
2022/03/13 03:31:08;;;;;;;4.65;3.17;;;19.90;46.00;;;;;;4992659;28;20054;-59
2022/03/13 03:33:34;;;;;;;5.00;3.40;;;19.90;46.00;;;;;;4993534;28;20042;-59
2022/03/13 03:35:59;;;;;;;6.05;3.30;;;19.90;45.90;;;;;;4992821;28;20380;-59
2022/03/13 03:38:25;;;;;;;4.07;2.90;;;19.90;45.90;;;;;;4993237;28;20487;-59
2022/03/13 03:40:51;;;;;;;5.20;3.10;;;20.00;46.00;;;;;;4993831;28;20053;-59
2022/03/13 03:43:16;;;;;;;5.95;3.35;;;19.90;45.90;;;;;;4992549;28;20030;-59
2022/03/13 03:45:42;;;;;;;5.00;3.10;;;19.90;45.80;;;;;;4993281;28;20508;-59
2022/03/13 03:48:07;;;;;;;5.20;3.10;;;19.90;45.90;;;;;;4993285;28;20053;-59
2022/03/13 03:50:33;;;;;;;5.00;3.30;;;20.00;45.90;;;;;;4992897;28;20046;-59
2022/03/13 03:52:59;;;;;;;5.43;3.40;;;20.00;45.90;;;;;;4993703;28;20494;-59
2022/03/13 03:55:25;;;;;;;5.38;3.20;;;20.00;45.80;;;;;;4993312;28;20046;-59
2022/03/13 03:57:51;;;;;;;5.18;3.30;;;20.00;45.90;;;;;;4992538;28;20045;-59
2022/03/13 04:00:16;;;;;;;4.65;3.17;;;20.00;45.80;;;;;;4992935;28;20042;-59
2022/03/13 04:02:42;;;;;;;5.35;3.30;;;20.00;45.80;;;;;;4993133;28;20034;-59
2022/03/13 04:05:09;;;;;;;4.32;2.90;;;20.00;45.80;;;;;;4992131;28;20065;-59
2022/03/13 04:07:36;;;;;;;4.40;3.08;;;20.00;45.70;;;;;;4993172;28;20513;-59
2022/03/13 04:10:03;;;;;;;4.72;3.10;;;20.00;45.70;;;;;;4993378;28;20052;-59
2022/03/13 04:12:29;;;;;;;5.07;3.00;;;20.00;45.70;;;;;;4992635;28;20086;-59
2022/03/13 04:14:54;;;;;;;5.70;3.45;;;20.00;45.70;;;;;;4992998;28;20034;-59
2022/03/13 04:17:20;;;;;;;4.50;3.30;;;20.10;45.70;;;;;;4993060;28;20508;-59
2022/03/13 04:19:46;;;;;;;4.72;3.17;;;20.10;45.70;;;;;;4993218;28;20150;-59
2022/03/13 04:22:12;;;;;;;5.00;3.25;;;20.10;45.70;;;;;;4992908;28;20038;-59
2022/03/13 04:24:37;;;;;;;5.20;3.50;;;20.10;45.70;;;;;;4993396;28;20078;-59
2022/03/13 04:27:03;;;;;;;5.50;3.50;;;20.10;45.70;;;;;;4992004;28;20089;-59
2022/03/13 04:29:29;;;;;;;4.93;3.30;;;20.10;45.70;;;;;;4992959;28;20038;-59
2022/03/13 04:31:55;;;;;;;5.25;3.25;;;20.10;45.70;;;;;;4993072;28;20054;-59
2022/03/13 04:34:21;;;;;;;4.70;3.10;;;20.10;45.70;;;;;;4992138;28;20553;-59
2022/03/13 04:36:47;;;;;;;5.20;2.90;;;20.10;45.60;;;;;;4992965;28;20405;-59
2022/03/13 04:39:13;;;;;;;4.75;3.10;;;20.20;45.60;;;;;;4994119;28;20050;-59
2022/03/13 04:41:39;;;;;;;3.88;2.88;;;20.20;45.60;;;;;;4996870;28;20046;-59
2022/03/13 04:44:06;;;;;;;4.85;3.35;;;20.20;45.60;;;;;;4996727;28;20046;-59
2022/03/13 04:46:32;;;;;;;5.53;3.33;;;20.20;45.60;;;;;;4996043;28;20057;-59
2022/03/13 04:48:57;;;;;;;4.93;3.78;;;20.20;45.50;;;;;;4996762;28;20042;-59
2022/03/13 04:51:23;;;;;;;4.93;3.28;;;20.20;45.50;;;;;;4996331;28;20166;-59
2022/03/13 04:53:49;;;;;;;5.20;3.40;;;20.20;45.50;;;;;;4996009;28;20038;-59
2022/03/13 04:56:14;;;;;;;4.43;3.13;;;20.20;45.50;;;;;;4996595;28;20397;-59
2022/03/13 04:58:40;;;;;;;4.55;3.10;;;20.20;45.40;;;;;;4996702;28;20042;-59
2022/03/13 05:01:05;;;;;;;4.97;2.95;;;20.20;46.10;;;;;;4990726;28;20398;-59
2022/03/13 05:03:34;;;;;;;5.15;3.40;;;20.20;45.40;;;;;;4989243;28;20039;-59
2022/03/13 05:06:05;;;;;;;5.80;3.38;;;20.20;45.40;;;;;;4976725;28;20078;-59
2022/03/13 05:08:32;;;;;;;5.22;3.33;;;20.20;45.40;;;;;;4976189;28;20043;-59
2022/03/13 05:10:58;;;;;;;4.60;3.10;;;20.20;45.30;;;;;;4977017;28;20130;-59
2022/03/13 05:13:24;;;;;;;4.95;3.10;;;20.20;45.30;;;;;;4976579;28;20046;-59
2022/03/13 05:15:52;;;;;;;4.40;2.97;;;20.20;45.30;;;;;;4976147;28;20043;-59
2022/03/13 05:18:17;;;;;;;5.68;3.08;;;20.20;45.30;;;;;;4976463;28;20057;-59
2022/03/13 05:20:43;;;;;;;4.68;2.97;;;20.20;45.30;;;;;;4976795;28;20129;-59
2022/03/13 05:23:09;;;;;;;4.43;2.90;;;20.20;45.30;;;;;;4975867;28;20383;-59
2022/03/13 05:25:35;;;;;;;4.28;3.10;;;20.30;45.30;;;;;;4976738;28;20085;-59
2022/03/13 05:28:01;;;;;;;5.03;3.15;;;20.30;45.30;;;;;;4976329;28;20582;-59
2022/03/13 05:30:27;;;;;;;4.07;3.17;;;20.30;45.30;;;;;;4975522;28;20050;-59
2022/03/13 05:32:53;;;;;;;4.95;3.35;;;20.30;45.20;;;;;;4976563;28;20125;-59
2022/03/13 05:35:19;;;;;;;5.00;3.35;;;20.30;45.20;;;;;;4976309;28;20411;-59
2022/03/13 05:37:44;;;;;;;4.50;3.28;;;20.30;45.10;;;;;;4975502;28;20125;-59
2022/03/13 05:40:14;;;;;;;3.80;2.80;;;20.30;45.10;;;;;;4976304;28;20406;-59
2022/03/13 05:42:42;;;;;;;5.15;3.72;;;20.30;45.10;;;;;;4975397;28;20055;-59
2022/03/13 05:45:10;;;;;;;4.43;3.15;;;20.30;45.10;;;;;;4976038;28;20066;-59
2022/03/13 05:47:45;;;;;;;4.50;3.13;;;20.30;45.10;;;;;;4976179;28;20473;-59
2022/03/13 05:50:11;;;;;;;4.22;2.75;;;20.30;45.20;;;;;;4974713;28;20043;-59
2022/03/13 05:52:37;;;;;;;5.00;2.97;;;20.30;45.10;;;;;;4976445;28;20053;-59
2022/03/13 05:55:03;;;;;;;4.07;2.95;;;20.30;45.00;;;;;;4976029;28;20035;-59
2022/03/13 05:57:28;;;;;;;5.47;3.10;;;20.30;45.00;;;;;;4975536;28;20045;-59
2022/03/13 05:59:54;;;;;;;5.32;3.20;;;20.30;45.00;;;;;;4974939;28;20545;-59
2022/03/13 06:02:22;;;;;;;4.88;3.33;;;20.30;45.00;;;;;;4975707;28;20043;-59
2022/03/13 06:04:47;;;;;;;;;;;20.30;45.00;;;;;;4975892;28;20186;-59
2022/03/13 06:07:13;;;;;;;4.55;2.97;;;20.30;45.30;;;;;;4975740;28;20359;-59
2022/03/13 06:09:38;;;;;;;4.43;3.15;;;20.30;45.00;;;;;;4975900;28;20042;-59
2022/03/13 06:12:05;;;;;;;4.93;2.72;;;20.30;45.00;;;;;;4974943;28;20047;-59
2022/03/13 06:14:30;;;;;;;4.55;2.92;;;20.30;45.00;;;;;;4975931;28;20047;-59
2022/03/13 06:16:56;;;;;;;4.85;3.17;;;20.30;44.90;;;;;;4975821;28;20046;-59
2022/03/13 06:19:21;;;;;;;5.15;3.25;;;20.30;44.90;;;;;;4974827;28;20133;-59
2022/03/13 06:21:48;;;;;;;4.70;3.03;;;20.30;44.90;;;;;;4975572;28;20078;-59
2022/03/13 06:24:14;;;;;;;3.90;2.72;;;20.30;44.90;;;;;;4975269;28;20046;-59
2022/03/13 06:26:39;;;;;;;4.47;3.00;;;20.30;44.80;;;;;;4974946;28;20054;-59
2022/03/13 06:29:05;;;;;;;4.85;3.30;;;20.30;44.80;;;;;;4975310;28;20380;-59
2022/03/13 06:31:30;;;;;;;3.45;2.63;;;20.30;44.80;;;;;;4974683;28;20051;-59
2022/03/13 06:33:56;;;;;;;4.97;3.03;;;20.30;44.80;;;;;;4974707;28;20057;-59
2022/03/13 06:36:21;;;;;;;4.35;3.30;;;20.30;44.80;;;;;;4975216;28;20097;-59
2022/03/13 06:38:47;;;;;;;5.57;3.13;;;20.30;44.80;;;;;;4974367;28;20134;-59
2022/03/13 06:41:12;;;;;;;4.38;3.30;;;20.30;44.70;;;;;;4974977;28;20584;-59
2022/03/13 06:43:38;;;;;;;3.85;2.80;;;20.30;44.70;;;;;;4975179;28;20212;-59
2022/03/13 06:46:04;;;;;;;4.95;3.45;;;20.30;44.70;;;;;;4974150;28;20051;-59
2022/03/13 06:48:31;;;;;;;4.30;3.10;;;20.30;44.70;;;;;;4975112;28;20051;-59
2022/03/13 06:50:57;;;;;;;5.45;3.40;;;20.30;44.60;;;;;;4975224;28;20050;-59
2022/03/13 06:53:23;;;;;;;4.13;2.70;;;20.30;44.60;;;;;;4974028;28;20047;-59
2022/03/13 06:55:50;;;;;;;5.22;3.28;;;20.40;44.70;;;;;;4975224;28;20053;-59
2022/03/13 06:58:16;;;;;;;5.00;3.03;;;20.40;44.60;;;;;;4974627;28;20509;-59
2022/03/13 07:00:44;;;;;;;4.70;3.10;;;20.40;44.70;;;;;;4973449;28;20054;-59
2022/03/13 07:03:10;;;;;;;4.57;3.15;;;20.40;44.70;;;;;;4974442;28;20479;-59
2022/03/13 07:05:36;;;;;;;5.07;2.75;;;20.40;44.70;;;;;;4974924;28;20042;-59
2022/03/13 07:08:01;;;;;;;5.15;3.08;;;20.40;44.60;;;;;;4974064;28;20498;-59
2022/03/13 07:10:27;;;;;;;5.15;2.80;;;20.40;44.60;;;;;;4974533;28;20070;-59
2022/03/13 07:12:55;;;;;;;5.47;2.90;;;20.40;44.50;;;;;;4974728;28;20054;-59
2022/03/13 07:15:21;;;;;;;5.07;2.97;;;20.50;44.60;;;;;;4973677;28;20054;-59
2022/03/13 07:17:46;;;;;;;6.95;3.13;;;20.50;44.70;;;;;;4974638;28;20159;-60
2022/03/13 07:20:12;;;;;;;7.72;3.00;;;20.50;44.70;;;;;;4974459;28;20541;-59
2022/03/13 07:22:38;;;;;;;5.05;2.80;;;20.50;44.70;;;;;;4973654;28;20491;-59
2022/03/13 07:25:04;;;;;;;5.18;3.03;;;20.50;44.70;;;;;;4974174;28;20046;-59
2022/03/13 07:27:30;;;;;;;4.18;2.90;;;20.50;44.80;;;;;;4974394;28;20093;-59
2022/03/13 07:29:55;;;;;;;5.78;3.13;;;20.50;44.90;;;;;;4973643;28;20078;-57
2022/03/13 07:32:21;;;;;;;7.13;3.22;;;20.60;45.00;;;;;;4973839;28;20123;-59
2022/03/13 07:34:47;;;;;;;4.40;2.78;;;20.60;45.20;;;;;;4985590;28;20060;-59
2022/03/13 07:37:12;;;;;;;4.95;3.17;;;20.60;45.30;;;;;;4992473;28;20057;-59
2022/03/13 07:39:41;;;;;;;5.72;3.33;;;20.60;45.40;;;;;;4993462;28;20093;-59
2022/03/13 07:42:08;;;;;;;4.95;2.78;;;20.70;45.60;;;;;;4992377;28;20449;-59
2022/03/13 07:44:34;;;;;;;5.18;3.05;;;20.70;45.80;;;;;;4993353;28;20505;-59
2022/03/13 07:46:59;;;;;;;6.20;3.33;;;20.70;45.80;;;;;;4993625;28;20042;-59
2022/03/13 07:49:25;;;;;;;5.25;3.30;;;20.70;45.80;;;;;;4992383;28;20054;-59
2022/03/13 07:51:50;;;;;;;7.13;3.67;;;20.70;45.90;;;;;;4993489;28;20042;-59
2022/03/13 07:54:20;;;;;;;8.93;3.35;;;20.70;45.80;;;;;;4993360;28;20189;-59
2022/03/13 07:56:46;;;;;;;4.10;3.00;;;20.80;45.80;;;;;;4992700;28;20043;-59
2022/03/13 07:59:11;;;;;;;5.80;3.10;;;20.80;45.90;;;;;;4993150;28;20041;-59
2022/03/13 08:01:37;;;;;;;7.25;3.45;;;20.80;45.90;;;;;;4993470;28;20362;-59
2022/03/13 08:04:04;;;;;;;4.88;2.75;;;20.80;45.90;;;;;;4992551;28;20168;-59
2022/03/13 08:06:33;;;;;;;5.25;3.10;;;20.80;46.00;;;;;;4992880;28;20506;-59
2022/03/13 08:08:58;;;;;;;5.72;3.10;;;20.90;46.10;;;;;;4993469;28;20038;-59
2022/03/13 08:11:24;;;;;;;6.10;2.45;;;20.90;46.00;;;;;;4992186;28;20505;-59
2022/03/13 08:13:50;;;;;;;8.00;3.63;;;20.90;46.00;;;;;;4999100;28;20390;-59
2022/03/13 08:16:15;;;;;;;5.05;2.85;;;20.90;45.90;;;;;;4999185;28;20079;-59
2022/03/13 08:18:41;;;;;;;4.47;2.78;;;20.90;45.80;;;;;;4999165;28;20053;-59
2022/03/13 08:21:06;;;;;;;6.18;3.15;;;20.90;45.80;;;;;;4999528;28;20104;-59
2022/03/13 08:23:32;;;;;;;4.53;2.97;;;21.00;45.80;;;;;;4999682;28;20039;-59
2022/03/13 08:25:57;;;;;;;5.45;2.70;;;21.00;45.80;;;;;;4999060;28;20046;-59
2022/03/13 08:28:23;;;;;;;5.05;2.70;;;21.00;45.70;;;;;;4999515;28;20043;-59
2022/03/13 08:30:48;;;;;;;7.43;3.55;;;21.00;45.70;;;;;;4999384;28;20398;-59
2022/03/13 08:33:14;;;;;;;3.40;2.28;;;21.00;45.70;;;;;;4998371;28;20038;-59
2022/03/13 08:35:39;;;;;;;6.45;2.97;;;21.00;45.60;;;;;;4999569;28;20133;-59
2022/03/13 08:38:06;;;;;;;5.72;3.05;;;21.00;45.50;;;;;;4998993;28;20638;-60
2022/03/13 08:40:31;;;;;;;4.20;2.63;;;21.10;45.60;;;;;;4997678;28;20057;-61
2022/03/13 08:42:57;;;;;;;6.68;3.20;;;21.10;45.50;;;;;;4999522;28;20042;-60
2022/03/13 08:45:23;;;;;;;4.00;2.72;;;21.10;45.50;;;;;;4998457;28;20046;-60
2022/03/13 08:47:49;;;;;;;4.97;3.05;;;21.10;45.60;;;;;;4999621;28;20042;-59
2022/03/13 08:50:16;;;;;;;4.55;2.95;;;21.10;45.70;;;;;;4999203;28;20390;-59
2022/03/13 08:52:42;;;;;;;5.10;3.00;;;21.10;45.80;;;;;;4998902;28;20084;-59
2022/03/13 08:55:08;;;;;;;4.90;2.72;;;21.20;46.00;;;;;;4999088;28;20065;-59
2022/03/13 08:57:34;;;;;;;5.07;2.78;;;21.20;46.00;;;;;;4999261;28;20050;-61
2022/03/13 09:00:00;;;;;;;8.20;2.92;;;21.20;46.10;;;;;;4998715;28;20042;-60
2022/03/13 09:02:26;;;;;;;7.45;3.00;;;21.20;46.10;;;;;;4998978;28;20398;-60
2022/03/13 09:04:52;;;;;;;5.65;2.90;;;21.30;46.10;;;;;;4999139;28;20065;-61
2022/03/13 09:07:17;;;;;;;4.85;2.80;;;21.30;45.90;;;;;;4997786;28;20038;-60
2022/03/13 09:09:43;;;;;;;4.00;2.97;;;21.30;45.90;;;;;;4999494;28;20072;-60
2022/03/13 09:12:09;;;;;;;4.93;2.90;;;21.30;45.90;;;;;;4998827;28;20054;-60
2022/03/13 09:14:39;;;;;;;4.28;2.60;;;21.30;45.90;;;;;;4998643;28;20046;-60
2022/03/13 09:17:05;;;;;;;4.35;2.72;;;21.30;45.90;;;;;;4998878;28;20042;-62
2022/03/13 09:19:30;;;;;;;4.70;2.85;;;21.30;45.90;;;;;;4999314;28;20390;-60
2022/03/13 09:21:56;;;;;;;5.10;3.10;;;21.30;45.90;;;;;;4998694;28;20088;-60
2022/03/13 09:24:21;;;;;;;4.15;2.63;;;21.30;46.00;;;;;;4996847;28;20383;-60
2022/03/13 09:26:47;;;;;;;5.60;2.80;;;21.40;46.10;;;;;;4996140;28;20074;-60
2022/03/13 09:29:12;;;;;;;9.15;2.80;;;21.40;46.10;;;;;;4994970;28;20055;-60
2022/03/13 09:31:38;;;;;;;4.65;2.67;;;21.40;46.00;;;;;;4994506;28;20070;-60
2022/03/13 09:34:04;;;;;;;4.40;2.67;;;21.40;46.10;;;;;;4995768;28;20050;-60
2022/03/13 09:36:29;;;;;;;5.65;2.70;;;21.40;46.10;;;;;;4995282;28;20441;-60
2022/03/13 09:38:55;;;;;;;4.05;2.50;;;21.40;46.10;;;;;;4994446;28;20050;-60
2022/03/13 09:41:20;;;;;;;4.55;2.97;;;21.40;45.90;;;;;;4995745;28;20054;-60
2022/03/13 09:43:46;;;;;;;4.22;2.92;;;21.40;45.90;;;;;;4995163;28;20474;-60
2022/03/13 09:46:12;;;;;;;5.63;3.30;;;21.40;45.90;;;;;;4995662;28;20049;-60
2022/03/13 09:48:38;;;;;;;5.28;2.97;;;21.40;45.90;;;;;;4994062;28;20375;-60
2022/03/13 09:51:04;;;;;;;6.30;2.95;;;21.40;45.90;;;;;;4995233;28;20093;-60
2022/03/13 09:53:36;;;;;;;8.20;3.17;;;21.40;45.90;;;;;;4994824;28;20050;-59
2022/03/13 09:56:03;;;;;;;4.22;2.80;;;21.40;45.90;;;;;;4994931;28;20093;-60
2022/03/13 09:58:29;;;;;;;4.75;3.10;;;21.40;45.90;;;;;;4995418;28;20042;-59
2022/03/13 10:00:56;;;;;;;3.88;2.60;;;21.40;45.90;;;;;;4995374;28;20043;-60
2022/03/13 10:03:21;;;;;;;5.82;3.05;;;21.40;45.90;;;;;;5011211;28;20046;-61
2022/03/13 10:05:47;;;;;;;5.40;3.05;;;21.40;45.90;;;;;;5015099;28;20125;-60
2022/03/13 10:08:13;;;;;;;4.43;2.90;;;21.40;46.50;;;;;;5013716;28;20120;-60
2022/03/13 10:10:46;;;;;;;5.47;2.72;;;21.40;45.90;;;;;;5014332;28;20449;-60
2022/03/13 10:13:14;;;;;;;6.15;2.80;;;21.40;45.90;;;;;;5014336;28;20045;-60
2022/03/13 10:15:45;;;;;;;5.22;2.97;;;21.40;45.80;;;;;;5014532;28;20513;-60
2022/03/13 10:18:15;;;;;;;6.55;2.85;;;21.40;45.80;;;;;;5012759;28;20062;-60
2022/03/13 10:20:41;;;;;;;5.18;3.03;;;21.40;45.70;;;;;;5014382;28;20379;-60
2022/03/13 10:23:10;;;;;;;5.57;3.10;;;21.40;45.70;;;;;;5014474;28;20083;-60
2022/03/13 10:25:40;;;;;;;5.70;3.13;;;21.40;45.70;;;;;;5013701;28;20050;-59
2022/03/13 10:28:13;;;;;;;3.67;2.40;;;21.40;45.70;;;;;;5014166;28;20050;-60
2022/03/13 10:30:40;;;;;;;6.65;2.92;;;21.40;45.70;;;;;;5014397;28;20046;-60
2022/03/13 10:33:08;;;;;;;4.57;3.17;;;21.40;45.70;;;;;;5012192;28;20060;-60
2022/03/13 10:35:34;;;;;;;;;;;21.40;46.40;;;;;;5013953;28;20046;-60
2022/03/13 10:38:00;;;;;;;5.30;2.70;;;21.40;45.70;;;;;;5011982;28;19974;-60
2022/03/13 10:40:31;;;;;;;5.35;2.97;;;21.30;45.70;;;;;;5013887;28;20041;-60
2022/03/13 10:43:03;;;;;;;4.00;2.60;;;21.30;45.60;;;;;;5029187;28;20125;-60
2022/03/13 10:45:39;;;;;;;6.22;2.60;;;21.40;45.60;;;;;;5012298;28;20050;-60
2022/03/13 10:48:30;;;;;;;4.10;2.70;;;21.30;45.60;;;;;;5012549;28;20050;-60
2022/03/13 10:51:00;;;;;;;5.25;3.05;;;21.40;45.60;;;;;;5027495;28;20048;-59
2022/03/13 10:53:27;;;;;;;6.93;2.70;;;21.30;45.50;;;;;;5011861;28;20050;-59
2022/03/13 10:56:13;;;;;;;4.15;2.67;;;21.40;45.60;;;;;;4990909;28;20042;-60
2022/03/13 10:58:40;;;;;;;6.78;3.17;;;21.30;45.50;;;;;;4988981;28;20049;-61
2022/03/13 11:01:19;;;;;;;6.75;2.92;;;21.40;45.50;;;;;;4991045;28;20113;-61
2022/03/13 11:03:52;;;;;;;7.13;3.17;;;21.30;45.50;;;;;;4991903;28;20081;-60
2022/03/13 11:06:18;;;;;;;6.00;3.22;;;21.30;45.50;;;;;;4989830;28;20093;-60
2022/03/13 11:08:44;;;;;;;5.30;2.97;;;21.30;45.60;;;;;;4991207;28;20039;-60
2022/03/13 11:11:12;;;;;;;5.25;2.70;;;21.30;45.60;;;;;;4987284;28;20082;-60
2022/03/13 11:13:41;;;;;;;6.35;2.58;;;21.30;45.60;;;;;;4987899;28;20038;-60
2022/03/13 11:16:09;;;;;;;5.35;3.10;;;21.30;45.60;;;;;;4988992;28;20077;-60
2022/03/13 11:18:36;;;;;;;6.03;2.90;;;21.30;45.60;;;;;;4987601;28;20042;-59
2022/03/13 11:21:04;;;;;;;4.85;2.90;;;21.30;45.70;;;;;;4989124;28;20046;-61
2022/03/13 11:23:30;;;;;;;6.20;2.97;;;21.30;45.80;;;;;;4989568;28;20050;-59
2022/03/13 11:25:56;;;;;;;6.03;3.20;;;21.30;45.80;;;;;;4991159;28;20053;-60
2022/03/13 11:28:22;;;;;;;6.00;2.80;;;21.40;45.90;;;;;;4989349;28;20046;-60
2022/03/13 11:30:48;;;;;;;5.30;3.17;;;21.30;45.90;;;;;;4991884;28;20142;-60
2022/03/13 11:33:34;;;;;;;4.57;2.67;;;21.30;46.60;;;;;;4991582;28;20520;-59
2022/03/13 11:36:27;;;;;;;4.82;2.45;;;21.30;45.90;;;;;;4989743;28;20046;-60
2022/03/13 11:39:01;;;;;;;5.68;2.88;;;21.30;46.00;;;;;;4982028;28;20058;-60
2022/03/13 11:41:37;;;;;;;4.00;2.65;;;21.30;45.90;;;;;;4989532;28;20058;-60
2022/03/13 11:44:28;;;;;;;4.25;2.70;;;21.30;45.90;;;;;;4991544;28;20120;-60
2022/03/13 11:46:55;;;;;;;4.80;3.03;;;21.30;45.90;;;;;;4992693;28;20157;-60
2022/03/13 11:49:26;;;;;;;6.85;3.15;;;21.40;45.90;;;;;;4991446;28;20117;-60
2022/03/13 11:52:13;;;;;;;6.78;2.70;;;21.30;45.70;;;;;;4993697;28;20250;-60
2022/03/13 11:54:53;;;;;;;5.03;2.67;;;21.30;45.50;;;;;;4993520;28;20049;-60
2022/03/13 11:57:24;;;;;;;4.72;2.83;;;21.30;45.60;;;;;;4992210;28;20053;-60
2022/03/13 12:00:11;;;;;;;4.07;2.72;;;21.30;45.60;;;;;;4993333;28;20042;-60
2022/03/13 12:02:45;;;;;;;3.95;2.72;;;21.30;45.60;;;;;;4992246;28;20860;-60
2022/03/13 12:05:26;;;;;;;4.90;2.45;;;21.30;45.60;;;;;;4993221;28;20165;-60
2022/03/13 12:08:05;;;;;;;4.63;3.03;;;21.30;45.70;;;;;;4993231;28;20046;-60
2022/03/13 12:10:32;;;;;;;4.82;2.88;;;21.30;45.60;;;;;;4991353;28;20042;-60
2022/03/13 12:13:17;;;;;;;6.72;3.83;;;21.30;45.60;;;;;;4993452;28;20050;-59
2022/03/13 12:15:44;;;;;;;5.10;3.50;;;21.30;44.70;;;;;;4993483;28;20038;-59
2022/03/13 12:18:17;;;;;;;5.20;3.15;;;21.30;44.80;;;;;;4991995;28;20046;-59
2022/03/13 12:20:44;;;;;;;6.55;3.95;;;21.30;44.60;;;;;;4993409;28;20051;-59
2022/03/13 12:23:10;;;;;;;8.50;5.43;;;21.30;44.20;;;;;;4992756;28;20046;-59
2022/03/13 12:25:36;;;;;;;7.88;4.72;;;21.30;43.00;;;;;;5007659;28;20042;-59
2022/03/13 12:28:02;;;;;;;8.05;5.28;;;21.30;42.20;;;;;;4992095;28;20048;-59
2022/03/13 12:30:29;;;;;;;6.35;4.13;;;21.30;42.00;;;;;;4992304;28;20057;-59
2022/03/13 12:33:05;;;;;;;12.40;4.88;;;21.40;42.10;;;;;;4992663;28;20050;-59
2022/03/13 12:35:31;;;;;;;6.63;3.80;;;21.30;42.00;;;;;;4993222;28;20097;-59
2022/03/13 12:38:03;;;;;;;7.20;3.95;;;21.40;42.20;;;;;;4992325;28;20045;-59
2022/03/13 12:40:29;;;;;;;6.00;4.00;;;21.40;42.10;;;;;;4992975;28;20089;-59
2022/03/13 12:42:55;;;;;;;7.40;4.30;;;21.40;42.00;;;;;;4992928;28;20133;-59
2022/03/13 12:45:21;;;;;;;7.47;3.95;;;21.40;42.00;;;;;;4991879;28;20129;-59
2022/03/13 12:47:49;;;;;;;6.82;3.83;;;21.40;42.10;;;;;;4992846;28;20058;-59